Flight Track Log - Related Links

Times and Time Zones

All times are in EDT time to prevent confusion due to time zone crossing. See the USC105 flight status page for this flight to view local times or setup timezone preferences in your user account.

Time Position Orientation Groundspeed Altitude Reporting Facility
EDT Latitude Longitude Course Direction KTS MPH feet Rate Location/Type
Thu 12:06:34 AM 42.2392 -83.5672 264° West 145 167 1,500  Level FAA TRACON SMA TRACON (SMA)
Thu 12:06:54 AM 42.2356 -83.5886 257° West 152 175 1,800 600 Climbing FAA TRACON SMA TRACON (SMA)
Thu 12:07:14 AM 42.2347 -83.6067 266° West 156 180 1,900 450 Climbing FAA TRACON SMA TRACON (SMA)
Thu 12:07:34 AM 42.2342 -83.6256 268° West 162 186 2,100 615 Climbing FAA TRACON SMA TRACON (SMA)
Thu 12:07:53 AM 42.2336 -83.6447 268° West 165 190 2,300 600 Climbing FAA TRACON SMA TRACON (SMA)
Thu 12:08:14 AM 42.2325 -83.6697 267° West 170 196 2,500 732 Climbing FAA TRACON SMA TRACON (SMA)
Thu 12:08:34 AM 42.2322 -83.6886 269° West 168 193 2,800 750 Climbing FAA TRACON SMA TRACON (SMA)
Thu 12:08:54 AM 42.2319 -83.7144 269° West 175 201 3,000 600 Climbing FAA TRACON SMA TRACON (SMA)
Thu 12:09:14 AM 42.2328 -83.7344 273° West 175 201 3,200 600 Climbing FAA TRACON SMA TRACON (SMA)
Thu 12:09:34 AM 42.2322 -83.7550 268° West 174 200 3,400 600 Climbing FAA TRACON SMA TRACON (SMA)
Thu 12:09:54 AM 42.2317 -83.7747 268° West 173 199 3,600 769 Climbing FAA TRACON SMA TRACON (SMA)
Thu 12:10:13 AM 42.2303 -83.8000 266° West 175 201 3,900 750 Climbing FAA TRACON SMA TRACON (SMA)
Thu 12:10:34 AM 42.2300 -83.8197 269° West 172 198 4,100 732 Climbing FAA TRACON SMA TRACON (SMA)
Thu 12:10:54 AM 42.2292 -83.8386 267° West 167 192 4,400 900 Climbing FAA TRACON SMA TRACON (SMA)
Thu 12:11:14 AM 42.2286 -83.8619 268° West 162 186 4,700 750 Climbing FAA TRACON SMA TRACON (SMA)
Thu 12:11:34 AM 42.2278 -83.8786 266° West 151 174 4,900 600 Climbing FAA TRACON SMA TRACON (SMA)
Thu 12:11:54 AM 42.2269 -83.9003 267° West 150 173 5,100 300 Climbing FAA TRACON SMA TRACON (SMA)
Thu 12:12:14 AM 42.2267 -83.9186 269° West 156 180 5,100 150 Level FAA TRACON SMA TRACON (SMA)
Thu 12:12:34 AM 42.2247 -83.9372 262° West 160 184 5,200 300 Climbing FAA TRACON SMA TRACON (SMA)
Thu 12:12:54 AM 42.2231 -83.9564 263° West 163 188 5,300 300 Climbing FAA TRACON SMA TRACON (SMA)
Thu 12:13:14 AM 42.2208 -83.9797 263° West 163 188 5,400 300 Climbing FAA TRACON SMA TRACON (SMA)
Thu 12:13:34 AM 42.2194 -83.9986 264° West 163 188 5,500 300 Climbing FAA TRACON SMA TRACON (SMA)
Thu 12:13:54 AM 42.2181 -84.0169 264° West 161 185 5,600 462 Climbing FAA TRACON SMA TRACON (SMA)
Thu 12:14:13 AM 42.2158 -84.0400 263° West 161 185 5,800 300 Climbing FAA TRACON SMA TRACON (SMA)
Thu 12:14:34 AM 42.2139 -84.0583 262° West 160 184 5,800 146 Level FAA TRACON SMA TRACON (SMA)
Thu 12:14:54 AM 42.2119 -84.0767 262° West 160 184 5,900 100 Climbing FAA TRACON SMA TRACON (SMA)
Thu 12:15:34 AM 42.2089 -84.1189 264° West 165 190 5,900  Level FAA TRACON SMA TRACON (SMA)
Thu 12:15:54 AM 42.2081 -84.1378 267° West 165 190 5,900  Level FAA TRACON SMA TRACON (SMA)
Thu 12:16:14 AM 42.2069 -84.1619 266° West 167 192 5,900  Level FAA TRACON SMA TRACON (SMA)
Thu 12:16:33 AM 42.2058 -84.1817 266° West 169 194 5,900  Level FAA TRACON SMA TRACON (SMA)
Thu 12:16:54 AM 42.2044 -84.2014 265° West 170 196 5,900  Level FAA TRACON SMA TRACON (SMA)
Thu 12:17:14 AM 42.2028 -84.2258 265° West 170 196 5,900  Level FAA TRACON SMA TRACON (SMA)
Thu 12:17:34 AM 42.2014 -84.2453 264° West 170 196 5,900  Level FAA TRACON SMA TRACON (SMA)
Thu 12:17:54 AM 42.2006 -84.2653 267° West 172 198 5,900  Level FAA TRACON SMA TRACON (SMA)
Thu 12:18:14 AM 42.1992 -84.2908 266° West 175 201 5,900  Level FAA TRACON SMA TRACON (SMA)
Thu 12:18:34 AM 42.1981 -84.3114 266° West 177 204 5,900  Level FAA TRACON SMA TRACON (SMA)
Thu 12:18:53 AM 42.1969 -84.3319 266° West 178 205 5,900  Level FAA TRACON SMA TRACON (SMA)
Thu 12:19:14 AM 42.1969 -84.3578 270° West 178 205 5,900  Level FAA TRACON SMA TRACON (SMA)
Thu 12:19:34 AM 42.1967 -84.3781 269° West 177 204 5,900  Level FAA TRACON SMA TRACON (SMA)
Thu 12:19:54 AM 42.1947 -84.3983 263° West 176 203 5,900  Level FAA TRACON SMA TRACON (SMA)
Thu 12:20:14 AM 42.1914 -84.4231 260° West 176 203 5,900  Level FAA TRACON SMA TRACON (SMA)
Thu 12:20:34 AM 42.1903 -84.4433 266° West 175 201 5,900  Level FAA TRACON SMA TRACON (SMA)
Thu 12:20:54 AM 42.1894 -84.4636 267° West 175 201 5,900  Level FAA TRACON SMA TRACON (SMA)
Thu 12:21:14 AM 42.1881 -84.4889 266° West 176 203 5,900  Level FAA TRACON SMA TRACON (SMA)
Thu 12:21:34 AM 42.1869 -84.5092 266° West 177 204 5,900  Level FAA TRACON SMA TRACON (SMA)
Thu 12:21:54 AM 42.1861 -84.5297 267° West 178 205 5,900  Level FAA TRACON SMA TRACON (SMA)
Thu 12:22:14 AM 42.1853 -84.5453 266° West 178 205 5,900 -50 Level FAA TRACON SMA TRACON (SMA)
Thu 12:23:54 AM 42.1769 -84.6658 265° West 184 212 5,800  Descending Chicago Center
Thu 12:24:55 AM 42.1736 -84.7344 266° West 186 214 5,900  Climbing Chicago Center
Thu 12:25:56 AM 42.1692 -84.8028 265° West 184 212 5,800 -49 Descending Chicago Center
Thu 12:26:57 AM 42.1656 -84.8719 266° West 185 213 5,800  Level Chicago Center
Thu 12:27:58 AM 42.1608 -84.9403 265° West 185 213 5,800  Level Chicago Center
Thu 12:28:58 AM 42.1575 -85.0072 266° West 182 209 5,800  Level Chicago Center
Thu 12:29:59 AM 42.1522 -85.0758 264° West 184 212 5,800  Level Chicago Center
Thu 12:31:00 AM 42.1486 -85.1442 266° West 185 213 5,800 49 Level Chicago Center
Thu 12:32:01 AM 42.1442 -85.2122 265° West 183 211 5,900  Climbing Chicago Center
Thu 12:33:02 AM 42.1383 -85.2939 265° West 183 211 5,800  Descending Chicago Center
Thu 12:34:03 AM 42.1336 -85.3628 265° West 186 214 5,900  Climbing Chicago Center
Thu 12:35:04 AM 42.1292 -85.4314 265° West 185 213 5,800 -50 Descending Chicago Center
Thu 12:36:04 AM 42.1247 -85.4992 265° West 184 212 5,800  Level Chicago Center
Thu 12:37:05 AM 42.1197 -85.5661 264° West 182 209 5,800  Level Chicago Center
Thu 12:38:06 AM 42.1153 -85.6339 265° West 182 209 5,800 49 Level Chicago Center
Thu 12:39:07 AM 42.1111 -85.7028 265° West 184 212 5,900 49 Climbing Chicago Center
Thu 12:40:08 AM 42.1061 -85.7703 264° West 184 212 5,900  Level Chicago Center
Thu 12:41:08 AM 42.1006 -85.8392 264° West 185 213 5,900 -50 Level Chicago Center
Thu 12:42:09 AM 42.0961 -85.9083 265° West 185 213 5,800 -49 Descending Chicago Center
Thu 12:43:10 AM 42.0908 -85.9772 264° West 186 214 5,800  Level Chicago Center
Thu 12:44:10 AM 42.0861 -86.0481 265° West 189 217 5,800  Level Chicago Center
Thu 12:45:11 AM 42.0808 -86.1169 264° West 187 215 5,800 49 Level Chicago Center
Thu 12:46:12 AM 42.0750 -86.2003 265° West 187 215 5,900 49 Climbing Chicago Center
Thu 12:47:13 AM 42.0700 -86.2722 265° West 191 220 5,900 -50 Level Chicago Center
Thu 12:48:13 AM 42.0642 -86.3447 264° West 195 224 5,800  Descending Chicago Center
Thu 12:49:14 AM 42.0597 -86.4158 265° West 192 221 5,900 49 Climbing Chicago Center
Thu 12:50:15 AM 42.0536 -86.4872 263° West 193 222 5,900  Level Chicago Center
Thu 12:51:15 AM 42.0489 -86.5586 265° West 193 222 5,900  Level Chicago Center
Thu 12:52:16 AM 42.0431 -86.6300 264° West 193 222 5,900  Level Chicago Center
Thu 12:53:17 AM 42.0375 -86.7006 264° West 191 220 5,900  Level Chicago Center
Thu 12:54:17 AM 42.0322 -86.7769 265° West 192 221 5,900  Level Chicago Center
Thu 12:55:18 AM 42.0269 -86.8478 264° West 191 220 5,900  Level Chicago Center
Thu 12:56:19 AM 42.0214 -86.9183 264° West 192 221 5,900  Level Chicago Center
Thu 12:57:19 AM 42.0144 -86.9892 263° West 192 221 5,900 -50 Level Chicago Center
Thu 12:58:20 AM 42.0092 -87.0614 264° West 194 223 5,800  Descending Chicago Center
Thu 12:59:21 AM 41.9931 -87.1294 252° West 194 223 5,900 50 Climbing Chicago Center
Thu 01:00:21 AM 41.9700 -87.1939 244° Southwest 192 221 5,900  Level Chicago Center
Thu 01:01:27 AM 41.9461 -87.2731 248° West 193 222 5,900 -47 Level Chicago Center
Thu 01:02:28 AM 41.9250 -87.3383 247° West 193 222 5,800  Descending Chicago Center
Thu 01:03:17 AM 41.9000 -87.4000 241° Southwest 195 224 5,900 55 Climbing Chicago TRACON
Thu 01:04:17 AM 41.8833 -87.4667 251° West 189 217 5,900  Level Chicago TRACON
Thu 01:05:17 AM 41.8667 -87.5333 251° West 186 214 5,900 -250 Level Chicago TRACON
Thu 01:06:17 AM 41.8333 -87.5833 228° Southwest 199 229 5,400 -500 Descending Chicago TRACON
Thu 01:07:17 AM 41.8167 -87.6500 251° West 207 238 4,900 -571 Descending Chicago TRACON
Thu 01:08:23 AM 41.7833 -87.7333 242° Southwest 215 247 4,200 -455 Descending Chicago TRACON
Thu 01:09:29 AM 41.7500 -87.8000 236° Southwest 208 239 3,900 -143 Descending Chicago TRACON
Thu 01:10:29 AM 41.7333 -87.8667 251° West 195 224 3,900  Level Chicago TRACON
Thu 01:11:23 AM 41.7167 -87.9333 252° West 192 221 3,900 -209 Level Chicago TRACON
Thu 01:12:24 AM 41.7000 -88.0000 252° West 197 227 3,500 -366 Descending Chicago TRACON
Thu 01:13:34 AM 41.6717 -88.0828 245° Southwest 195 224 3,100 -229 Descending Chicago Center
Thu 01:14:35 AM 41.6711 -88.1511 269° West 193 222 3,000 -298 Descending Chicago Center
Thu 01:15:35 AM 41.6944 -88.2128 297° West 190 219 2,500 -248 Descending Chicago Center
Thu 01:16:36 AM 41.7197 -88.2733 299° West 189 217 2,500  Level Chicago Center
Thu 01:17:36 AM 41.7619 -88.2969 337° Northwest 180 207 2,500  Level Chicago Center
Thu 01:18:37 AM 41.8042 -88.2844 12° North 166 191 2,500 -347 Level Chicago Center
Thu 01:19:37 AM 41.8381 -88.2731 14° North 146 168 1,800 -496 Descending Chicago Center
Thu 01:20:38 AM 41.8631 -88.2647 14° North 116 133 1,500 -347 Descending Chicago Center
Thu 01:21:38 AM 41.8914 -88.2544 15° North 106 122 1,100 -400 Descending Chicago Center

Login

Don't have an account? Register now (free) for customized features, flight alerts, and more!